sensor_id;sensor_type;location;lat;lon;timestamp;pressure;altitude;pressure_sealevel;temperature;humidity
63204;BME280;49297;43.210;27.914;2023-03-30T00:00:47;101956.66;;;0.78;73.86
63204;BME280;49297;43.210;27.914;2023-03-30T00:03:13;101954.25;;;0.72;73.57
63204;BME280;49297;43.210;27.914;2023-03-30T00:05:39;101958.00;;;0.62;73.51
63204;BME280;49297;43.210;27.914;2023-03-30T00:08:07;101956.50;;;0.53;73.86
63204;BME280;49297;43.210;27.914;2023-03-30T00:10:33;101959.97;;;0.53;74.12
63204;BME280;49297;43.210;27.914;2023-03-30T00:12:59;101963.47;;;0.52;74.06
63204;BME280;49297;43.210;27.914;2023-03-30T00:15:26;101957.41;;;0.52;74.71
63204;BME280;49297;43.210;27.914;2023-03-30T00:17:51;101951.38;;;0.50;74.27
63204;BME280;49297;43.210;27.914;2023-03-30T00:20:19;101947.00;;;0.52;74.55
63204;BME280;49297;43.210;27.914;2023-03-30T00:22:45;101942.53;;;0.55;74.34
63204;BME280;49297;43.210;27.914;2023-03-30T00:25:13;101937.22;;;0.59;74.55
63204;BME280;49297;43.210;27.914;2023-03-30T00:27:39;101937.16;;;0.62;74.89
63204;BME280;49297;43.210;27.914;2023-03-30T00:30:18;101938.72;;;0.67;74.72
63204;BME280;49297;43.210;27.914;2023-03-30T00:32:45;101937.94;;;0.64;74.63
63204;BME280;49297;43.210;27.914;2023-03-30T00:35:12;101936.31;;;0.61;74.00
63204;BME280;49297;43.210;27.914;2023-03-30T00:37:39;101940.63;;;0.61;74.41
63204;BME280;49297;43.210;27.914;2023-03-30T00:40:06;101944.25;;;0.56;74.74
63204;BME280;49297;43.210;27.914;2023-03-30T00:42:34;101947.69;;;0.57;74.00
63204;BME280;49297;43.210;27.914;2023-03-30T00:47:26;101945.19;;;0.54;74.42
63204;BME280;49297;43.210;27.914;2023-03-30T00:49:53;101948.69;;;0.53;74.21
63204;BME280;49297;43.210;27.914;2023-03-30T00:52:20;101943.53;;;0.50;74.17
63204;BME280;49297;43.210;27.914;2023-03-30T00:54:50;101946.22;;;0.48;73.98
63204;BME280;49297;43.210;27.914;2023-03-30T00:57:18;101942.88;;;0.43;74.34
63204;BME280;49297;43.210;27.914;2023-03-30T00:59:45;101942.84;;;0.45;74.41
63204;BME280;49297;43.210;27.914;2023-03-30T01:02:13;101941.25;;;0.39;74.71
63204;BME280;49297;43.210;27.914;2023-03-30T01:04:41;101943.16;;;0.34;74.50
63204;BME280;49297;43.210;27.914;2023-03-30T01:07:08;101940.59;;;0.32;74.44
63204;BME280;49297;43.210;27.914;2023-03-30T01:09:38;101938.81;;;0.33;74.50
63204;BME280;49297;43.210;27.914;2023-03-30T01:12:05;101938.75;;;0.36;74.46
63204;BME280;49297;43.210;27.914;2023-03-30T01:14:30;101943.00;;;0.38;74.27
63204;BME280;49297;43.210;27.914;2023-03-30T01:17:13;101941.31;;;0.37;74.23
63204;BME280;49297;43.210;27.914;2023-03-30T01:27:40;101937.69;;;0.43;74.05
63204;BME280;49297;43.210;27.914;2023-03-30T01:35:30;101935.06;;;0.43;74.58
63204;BME280;49297;43.210;27.914;2023-03-30T01:38:07;101942.88;;;0.43;74.71
63204;BME280;49297;43.210;27.914;2023-03-30T01:45:44;101940.88;;;0.53;74.90
63204;BME280;49297;43.210;27.914;2023-03-30T01:48:37;101952.25;;;0.50;74.80
63204;BME280;49297;43.210;27.914;2023-03-30T01:51:04;101944.53;;;0.46;75.00
63204;BME280;49297;43.210;27.914;2023-03-30T01:53:35;101950.59;;;0.46;74.84
63204;BME280;49297;43.210;27.914;2023-03-30T01:56:26;101950.75;;;0.42;74.76
63204;BME280;49297;43.210;27.914;2023-03-30T01:59:01;101950.09;;;0.33;74.44
63204;BME280;49297;43.210;27.914;2023-03-30T02:01:29;101949.38;;;0.27;74.46
63204;BME280;49297;43.210;27.914;2023-03-30T02:03:58;101955.59;;;0.23;74.07
63204;BME280;49297;43.210;27.914;2023-03-30T02:06:30;101942.56;;;0.23;73.75
63204;BME280;49297;43.210;27.914;2023-03-30T02:09:09;101944.41;;;0.19;73.26
63204;BME280;49297;43.210;27.914;2023-03-30T02:11:36;101950.63;;;0.13;73.03
63204;BME280;49297;43.210;27.914;2023-03-30T02:14:04;101955.03;;;0.11;72.77
63204;BME280;49297;43.210;27.914;2023-03-30T02:16:32;101950.06;;;0.02;72.73
63204;BME280;49297;43.210;27.914;2023-03-30T02:18:59;101954.56;;;-0.05;72.47
63204;BME280;49297;43.210;27.914;2023-03-30T02:21:25;101952.00;;;-0.06;72.83
63204;BME280;49297;43.210;27.914;2023-03-30T02:23:54;101962.41;;;-0.06;72.57
63204;BME280;49297;43.210;27.914;2023-03-30T02:26:22;101963.28;;;-0.07;72.44
63204;BME280;49297;43.210;27.914;2023-03-30T02:28:48;101965.91;;;-0.07;72.68
63204;BME280;49297;43.210;27.914;2023-03-30T02:31:14;101961.44;;;-0.02;72.29
63204;BME280;49297;43.210;27.914;2023-03-30T02:33:46;101958.97;;;-0.07;72.05
63204;BME280;49297;43.210;27.914;2023-03-30T02:37:04;101959.03;;;-0.10;72.42
63204;BME280;49297;43.210;27.914;2023-03-30T02:42:31;101964.31;;;-0.13;73.06
63204;BME280;49297;43.210;27.914;2023-03-30T02:47:27;101967.78;;;-0.12;73.43
63204;BME280;49297;43.210;27.914;2023-03-30T02:49:58;101967.03;;;-0.17;73.25
63204;BME280;49297;43.210;27.914;2023-03-30T02:55:02;101967.00;;;-0.16;72.44
63204;BME280;49297;43.210;27.914;2023-03-30T02:57:35;101965.22;;;-0.14;72.37
63204;BME280;49297;43.210;27.914;2023-03-30T03:00:14;101960.03;;;-0.15;71.25
63204;BME280;49297;43.210;27.914;2023-03-30T03:02:43;101965.31;;;-0.18;70.96
63204;BME280;49297;43.210;27.914;2023-03-30T03:05:12;101963.47;;;-0.13;70.98
63204;BME280;49297;43.210;27.914;2023-03-30T03:07:41;101966.88;;;-0.11;70.67
63204;BME280;49297;43.210;27.914;2023-03-30T03:10:07;101968.69;;;-0.15;70.40
63204;BME280;49297;43.210;27.914;2023-03-30T03:12:34;101968.84;;;-0.20;70.75
63204;BME280;49297;43.210;27.914;2023-03-30T03:15:00;101973.13;;;-0.18;71.41
63204;BME280;49297;43.210;27.914;2023-03-30T03:17:26;101976.50;;;-0.15;71.46
63204;BME280;49297;43.210;27.914;2023-03-30T03:19:53;101980.88;;;-0.15;71.40
63204;BME280;49297;43.210;27.914;2023-03-30T03:22:21;101973.94;;;-0.16;71.60
63204;BME280;49297;43.210;27.914;2023-03-30T03:24:47;101982.72;;;-0.21;71.92
63204;BME280;49297;43.210;27.914;2023-03-30T03:27:13;101983.75;;;-0.26;72.33
63204;BME280;49297;43.210;27.914;2023-03-30T03:29:39;101982.94;;;-0.28;72.44
63204;BME280;49297;43.210;27.914;2023-03-30T03:32:05;101985.59;;;-0.31;72.80
63204;BME280;49297;43.210;27.914;2023-03-30T03:34:31;101997.81;;;-0.35;72.60
63204;BME280;49297;43.210;27.914;2023-03-30T03:36:57;101993.47;;;-0.34;72.73
63204;BME280;49297;43.210;27.914;2023-03-30T03:39:24;101994.28;;;-0.32;72.47
63204;BME280;49297;43.210;27.914;2023-03-30T03:41:50;101995.28;;;-0.38;72.76
63204;BME280;49297;43.210;27.914;2023-03-30T03:44:15;101991.91;;;-0.42;72.54
63204;BME280;49297;43.210;27.914;2023-03-30T03:46:42;101993.63;;;-0.41;72.58
63204;BME280;49297;43.210;27.914;2023-03-30T03:49:08;101999.75;;;-0.43;72.44
63204;BME280;49297;43.210;27.914;2023-03-30T03:51:34;102000.66;;;-0.44;72.50
63204;BME280;49297;43.210;27.914;2023-03-30T03:54:00;102006.72;;;-0.45;72.56
63204;BME280;49297;43.210;27.914;2023-03-30T03:56:27;101998.84;;;-0.42;72.33
63204;BME280;49297;43.210;27.914;2023-03-30T03:58:53;101997.06;;;-0.40;72.41
63204;BME280;49297;43.210;27.914;2023-03-30T04:01:19;101994.53;;;-0.43;72.36
63204;BME280;49297;43.210;27.914;2023-03-30T04:03:47;101996.22;;;-0.41;72.21
63204;BME280;49297;43.210;27.914;2023-03-30T04:06:13;101997.94;;;-0.41;72.18
63204;BME280;49297;43.210;27.914;2023-03-30T04:08:51;101997.94;;;-0.41;72.14
63204;BME280;49297;43.210;27.914;2023-03-30T04:11:18;101997.84;;;-0.36;72.21
63204;BME280;49297;43.210;27.914;2023-03-30T04:13:44;101997.78;;;-0.33;71.90
63204;BME280;49297;43.210;27.914;2023-03-30T04:16:10;102003.84;;;-0.33;71.71
63204;BME280;49297;43.210;27.914;2023-03-30T04:18:35;102004.66;;;-0.31;71.54
63204;BME280;49297;43.210;27.914;2023-03-30T04:21:03;102011.47;;;-0.25;71.60
63204;BME280;49297;43.210;27.914;2023-03-30T04:23:33;102007.09;;;-0.23;71.15
63204;BME280;49297;43.210;27.914;2023-03-30T04:26:00;102014.84;;;-0.22;71.11
63204;BME280;49297;43.210;27.914;2023-03-30T04:28:29;102012.09;;;-0.14;70.70
63204;BME280;49297;43.210;27.914;2023-03-30T04:30:57;102010.31;;;-0.13;70.48
63204;BME280;49297;43.210;27.914;2023-03-30T04:33:24;102023.28;;;-0.10;70.63
63204;BME280;49297;43.210;27.914;2023-03-30T04:35:50;102017.16;;;-0.09;70.06
63204;BME280;49297;43.210;27.914;2023-03-30T04:38:17;102028.38;;;-0.07;70.19
63204;BME280;49297;43.210;27.914;2023-03-30T04:40:55;102015.47;;;-0.10;69.70
63204;BME280;49297;43.210;27.914;2023-03-30T04:43:21;102025.72;;;-0.04;69.66
63204;BME280;49297;43.210;27.914;2023-03-30T04:45:49;102023.00;;;0.01;69.24
63204;BME280;49297;43.210;27.914;2023-03-30T04:48:17;102033.41;;;0.02;68.57
63204;BME280;49297;43.210;27.914;2023-03-30T04:50:45;102042.06;;;0.03;68.58
63204;BME280;49297;43.210;27.914;2023-03-30T04:53:12;102036.75;;;0.07;68.38
63204;BME280;49297;43.210;27.914;2023-03-30T04:55:46;102034.91;;;0.11;67.65
63204;BME280;49297;43.210;27.914;2023-03-30T04:58:12;102034.03;;;0.10;67.65
63204;BME280;49297;43.210;27.914;2023-03-30T05:00:41;102034.84;;;0.12;67.13
63204;BME280;49297;43.210;27.914;2023-03-30T05:03:07;102028.69;;;0.16;66.52
63204;BME280;49297;43.210;27.914;2023-03-30T05:05:35;102031.16;;;0.21;66.31
63204;BME280;49297;43.210;27.914;2023-03-30T05:08:01;102036.34;;;0.23;65.67
63204;BME280;49297;43.210;27.914;2023-03-30T05:10:27;102029.34;;;0.25;65.73
63204;BME280;49297;43.210;27.914;2023-03-30T05:12:54;102039.69;;;0.28;65.44
63204;BME280;49297;43.210;27.914;2023-03-30T05:15:21;102033.44;;;0.35;65.31
63204;BME280;49297;43.210;27.914;2023-03-30T05:17:48;102026.34;;;0.40;65.05
63204;BME280;49297;43.210;27.914;2023-03-30T05:20:14;102027.91;;;0.47;64.80
63204;BME280;49297;43.210;27.914;2023-03-30T05:22:39;102032.13;;;0.51;64.73
63204;BME280;49297;43.210;27.914;2023-03-30T05:25:06;102034.63;;;0.56;63.76
63204;BME280;49297;43.210;27.914;2023-03-30T05:27:34;102025.81;;;0.60;63.95
63204;BME280;49297;43.210;27.914;2023-03-30T05:30:00;102034.28;;;0.68;63.44
63204;BME280;49297;43.210;27.914;2023-03-30T05:32:25;102031.63;;;0.71;62.98
63204;BME280;49297;43.210;27.914;2023-03-30T05:34:51;102025.53;;;0.71;63.12
63204;BME280;49297;43.210;27.914;2023-03-30T05:37:18;102027.31;;;0.69;62.06
63204;BME280;49297;43.210;27.914;2023-03-30T05:39:45;102030.91;;;0.65;62.85
63204;BME280;49297;43.210;27.914;2023-03-30T05:42:12;102040.53;;;0.63;63.42
63204;BME280;49297;43.210;27.914;2023-03-30T05:44:38;102043.94;;;0.65;62.81
63204;BME280;49297;43.210;27.914;2023-03-30T05:47:05;102045.75;;;0.63;62.56
63204;BME280;49297;43.210;27.914;2023-03-30T05:49:32;102043.03;;;0.66;62.82
63204;BME280;49297;43.210;27.914;2023-03-30T05:51:58;102037.63;;;0.73;62.26
63204;BME280;49297;43.210;27.914;2023-03-30T05:54:24;102043.66;;;0.75;62.09
63204;BME280;49297;43.210;27.914;2023-03-30T05:56:51;102042.69;;;0.78;61.56
63204;BME280;49297;43.210;27.914;2023-03-30T05:59:17;102046.97;;;0.82;61.07
63204;BME280;49297;43.210;27.914;2023-03-30T06:01:43;102044.28;;;0.84;60.36
63204;BME280;49297;43.210;27.914;2023-03-30T06:04:10;102054.63;;;0.87;59.93
63204;BME280;49297;43.210;27.914;2023-03-30T06:06:36;102059.06;;;0.83;59.61
63204;BME280;49297;43.210;27.914;2023-03-30T06:09:03;102058.22;;;0.83;59.29
63204;BME280;49297;43.210;27.914;2023-03-30T06:11:29;102063.31;;;0.87;59.56
63204;BME280;49297;43.210;27.914;2023-03-30T06:13:56;102055.38;;;0.92;59.34
63204;BME280;49297;43.210;27.914;2023-03-30T06:16:22;102063.72;;;1.03;59.72
63204;BME280;49297;43.210;27.914;2023-03-30T06:18:48;102067.00;;;1.11;59.52
63204;BME280;49297;43.210;27.914;2023-03-30T06:21:14;102068.53;;;1.19;58.01
63204;BME280;49297;43.210;27.914;2023-03-30T06:23:41;102065.78;;;1.23;58.14
63204;BME280;49297;43.210;27.914;2023-03-30T06:26:07;102072.72;;;1.24;58.30
63204;BME280;49297;43.210;27.914;2023-03-30T06:28:34;102067.31;;;1.30;58.56
63204;BME280;49297;43.210;27.914;2023-03-30T06:31:00;102070.69;;;1.34;58.35
63204;BME280;49297;43.210;27.914;2023-03-30T06:33:27;102070.53;;;1.39;58.19
63204;BME280;49297;43.210;27.914;2023-03-30T06:35:53;102070.41;;;1.43;58.32
63204;BME280;49297;43.210;27.914;2023-03-30T06:38:20;102073.63;;;1.51;57.93
63204;BME280;49297;43.210;27.914;2023-03-30T06:40:46;102072.47;;;1.62;57.89
63204;BME280;49297;43.210;27.914;2023-03-30T06:43:18;102069.72;;;1.66;57.69
63204;BME280;49297;43.210;27.914;2023-03-30T06:48:20;102065.66;;;1.86;57.16
63204;BME280;49297;43.210;27.914;2023-03-30T06:50:51;102066.31;;;1.93;56.61
63204;BME280;49297;43.210;27.914;2023-03-30T06:53:19;102068.00;;;1.94;56.82
63204;BME280;49297;43.210;27.914;2023-03-30T06:55:49;102073.84;;;2.02;57.42
63204;BME280;49297;43.210;27.914;2023-03-30T06:58:15;102072.44;;;2.18;57.20
63204;BME280;49297;43.210;27.914;2023-03-30T07:00:42;102060.72;;;2.30;56.92
63204;BME280;49297;43.210;27.914;2023-03-30T07:03:10;102061.97;;;2.45;57.56
63204;BME280;49297;43.210;27.914;2023-03-30T07:05:37;102067.25;;;2.69;57.48
63204;BME280;49297;43.210;27.914;2023-03-30T07:08:05;102055.41;;;2.83;57.44
63204;BME280;49297;43.210;27.914;2023-03-30T07:10:31;102063.66;;;2.96;57.38
63204;BME280;49297;43.210;27.914;2023-03-30T07:13:03;102052.75;;;3.09;56.68
63204;BME280;49297;43.210;27.914;2023-03-30T07:15:28;102060.81;;;3.26;57.61
63204;BME280;49297;43.210;27.914;2023-03-30T07:17:56;102064.63;;;3.41;56.96
63204;BME280;49297;43.210;27.914;2023-03-30T07:20:22;102055.25;;;3.57;56.68
63204;BME280;49297;43.210;27.914;2023-03-30T07:22:49;102049.38;;;3.74;56.51
63204;BME280;49297;43.210;27.914;2023-03-30T07:25:15;102046.97;;;3.90;56.04
63204;BME280;49297;43.210;27.914;2023-03-30T07:27:41;102056.72;;;4.09;55.29
63204;BME280;49297;43.210;27.914;2023-03-30T07:30:08;102050.75;;;4.26;53.97
63204;BME280;49297;43.210;27.914;2023-03-30T07:32:35;102057.94;;;4.43;54.28
63204;BME280;49297;43.210;27.914;2023-03-30T07:35:01;102044.34;;;4.53;53.03
63204;BME280;49297;43.210;27.914;2023-03-30T07:37:29;102043.59;;;4.70;53.73
63204;BME280;49297;43.210;27.914;2023-03-30T07:39:56;102034.22;;;4.85;53.70
63204;BME280;49297;43.210;27.914;2023-03-30T07:42:22;102048.28;;;5.03;53.63
63204;BME280;49297;43.210;27.914;2023-03-30T07:44:48;102044.88;;;5.20;52.01
63204;BME280;49297;43.210;27.914;2023-03-30T07:47:14;102042.47;;;5.34;51.08
63204;BME280;49297;43.210;27.914;2023-03-30T07:49:40;102032.41;;;5.44;51.27
63204;BME280;49297;43.210;27.914;2023-03-30T07:52:06;102034.53;;;5.55;49.88
63204;BME280;49297;43.210;27.914;2023-03-30T07:57:02;102028.09;;;5.80;38.94
63204;BME280;49297;43.210;27.914;2023-03-30T07:59:28;102035.59;;;5.87;38.87
63204;BME280;49297;43.210;27.914;2023-03-30T08:01:54;102033.31;;;5.99;37.84
63204;BME280;49297;43.210;27.914;2023-03-30T08:04:22;102031.16;;;6.07;37.55
63204;BME280;49297;43.210;27.914;2023-03-30T08:06:50;102022.97;;;6.13;37.36
63204;BME280;49297;43.210;27.914;2023-03-30T08:09:17;102022.66;;;6.19;36.26
63204;BME280;49297;43.210;27.914;2023-03-30T08:11:42;102024.06;;;6.26;37.29
63204;BME280;49297;43.210;27.914;2023-03-30T08:14:08;102026.97;;;6.38;36.56
63204;BME280;49297;43.210;27.914;2023-03-30T08:16:34;102017.84;;;6.45;37.22
63204;BME280;49297;43.210;27.914;2023-03-30T08:18:59;102018.22;;;6.55;37.14
63204;BME280;49297;43.210;27.914;2023-03-30T08:21:25;102022.94;;;6.65;35.79
63204;BME280;49297;43.210;27.914;2023-03-30T08:23:51;102021.00;;;6.69;34.46
63204;BME280;49297;43.210;27.914;2023-03-30T08:26:17;102025.50;;;6.67;35.19
63204;BME280;49297;43.210;27.914;2023-03-30T08:28:44;102011.38;;;6.68;36.03
63204;BME280;49297;43.210;27.914;2023-03-30T08:31:11;102017.03;;;6.78;35.31
63204;BME280;49297;43.210;27.914;2023-03-30T08:33:38;102017.38;;;6.88;34.25
63204;BME280;49297;43.210;27.914;2023-03-30T08:36:05;102024.00;;;6.95;34.64
63204;BME280;49297;43.210;27.914;2023-03-30T08:38:32;102021.91;;;7.01;34.71
63204;BME280;49297;43.210;27.914;2023-03-30T08:40:58;102007.72;;;7.04;32.40
63204;BME280;49297;43.210;27.914;2023-03-30T08:43:25;102019.53;;;7.13;31.91
63204;BME280;49297;43.210;27.914;2023-03-30T08:46:01;102005.88;;;7.22;31.83
63204;BME280;49297;43.210;27.914;2023-03-30T08:48:29;101995.34;;;7.22;32.45
63204;BME280;49297;43.210;27.914;2023-03-30T08:51:11;102007.66;;;7.21;33.08
63204;BME280;49297;43.210;27.914;2023-03-30T08:53:40;102002.97;;;7.27;32.05
63204;BME280;49297;43.210;27.914;2023-03-30T09:01:10;101995.91;;;7.43;31.81
63204;BME280;49297;43.210;27.914;2023-03-30T09:04:03;101996.59;;;7.47;31.90
63204;BME280;49297;43.210;27.914;2023-03-30T09:06:32;101993.56;;;7.38;31.67
63204;BME280;49297;43.210;27.914;2023-03-30T09:09:06;101980.97;;;7.43;31.89
63204;BME280;49297;43.210;27.914;2023-03-30T09:11:37;101984.69;;;7.39;31.85
63204;BME280;49297;43.210;27.914;2023-03-30T09:14:03;101975.72;;;7.43;31.38
63204;BME280;49297;43.210;27.914;2023-03-30T09:16:35;101972.13;;;7.44;30.61
63204;BME280;49297;43.210;27.914;2023-03-30T09:19:03;101971.44;;;7.41;31.18
63204;BME280;49297;43.210;27.914;2023-03-30T09:21:34;101967.59;;;7.47;32.09
63204;BME280;49297;43.210;27.914;2023-03-30T09:24:01;101974.81;;;7.59;30.39
63204;BME280;49297;43.210;27.914;2023-03-30T09:26:48;101963.69;;;7.54;30.85
63204;BME280;49297;43.210;27.914;2023-03-30T09:29:17;101961.72;;;7.57;31.63
63204;BME280;49297;43.210;27.914;2023-03-30T09:31:48;101961.22;;;7.67;31.47
63204;BME280;49297;43.210;27.914;2023-03-30T09:37:04;101957.88;;;7.79;31.42
63204;BME280;49297;43.210;27.914;2023-03-30T09:39:32;101955.91;;;7.82;31.64
63204;BME280;49297;43.210;27.914;2023-03-30T09:46:57;101943.81;;;8.09;31.65
63204;BME280;49297;43.210;27.914;2023-03-30T09:49:25;101948.34;;;8.21;31.26
63204;BME280;49297;43.210;27.914;2023-03-30T09:51:53;101948.66;;;8.31;31.36
63204;BME280;49297;43.210;27.914;2023-03-30T09:54:20;101940.25;;;8.38;30.98
63204;BME280;49297;43.210;27.914;2023-03-30T09:56:46;101928.78;;;8.39;31.77
63204;BME280;49297;43.210;27.914;2023-03-30T09:59:27;101940.88;;;8.44;30.21
63204;BME280;49297;43.210;27.914;2023-03-30T10:04:54;101940.13;;;8.56;31.64
63204;BME280;49297;43.210;27.914;2023-03-30T10:07:36;101942.38;;;8.62;29.80
63204;BME280;49297;43.210;27.914;2023-03-30T10:12:39;101947.66;;;8.62;30.59
63204;BME280;49297;43.210;27.914;2023-03-30T10:15:06;101943.31;;;8.61;29.97
63204;BME280;49297;43.210;27.914;2023-03-30T10:17:38;101934.53;;;8.61;30.50
63204;BME280;49297;43.210;27.914;2023-03-30T10:22:52;101923.44;;;8.70;30.13
63204;BME280;49297;43.210;27.914;2023-03-30T10:25:20;101930.78;;;8.79;30.82
63204;BME280;49297;43.210;27.914;2023-03-30T10:27:50;101922.06;;;8.91;30.90
63204;BME280;49297;43.210;27.914;2023-03-30T10:30:19;101924.78;;;9.04;29.66
63204;BME280;49297;43.210;27.914;2023-03-30T10:32:47;101912.16;;;8.95;29.84
63204;BME280;49297;43.210;27.914;2023-03-30T10:35:16;101905.75;;;8.85;29.81
63204;BME280;49297;43.210;27.914;2023-03-30T10:37:45;101912.84;;;8.84;30.38
63204;BME280;49297;43.210;27.914;2023-03-30T10:42:43;101902.94;;;8.88;29.85
63204;BME280;49297;43.210;27.914;2023-03-30T10:45:53;101907.53;;;8.99;29.72
63204;BME280;49297;43.210;27.914;2023-03-30T10:48:16;101909.84;;;9.03;29.35
63204;BME280;49297;43.210;27.914;2023-03-30T10:58:50;101887.88;;;9.70;30.71
63204;BME280;49297;43.210;27.914;2023-03-30T11:03:53;101893.38;;;9.93;29.61
63204;BME280;49297;43.210;27.914;2023-03-30T11:06:27;101886.22;;;10.07;29.20
63204;BME280;49297;43.210;27.914;2023-03-30T11:08:55;101889.19;;;10.28;29.06
63204;BME280;49297;43.210;27.914;2023-03-30T11:12:06;101872.34;;;10.55;29.26
63204;BME280;49297;43.210;27.914;2023-03-30T11:14:15;101885.34;;;10.95;28.34
63204;BME280;49297;43.210;27.914;2023-03-30T11:17:03;101874.06;;;11.04;26.70
63204;BME280;49297;43.210;27.914;2023-03-30T11:19:40;101881.63;;;10.98;26.97
63204;BME280;49297;43.210;27.914;2023-03-30T11:24:37;101870.66;;;11.51;27.05
63204;BME280;49297;43.210;27.914;2023-03-30T11:29:57;101846.31;;;12.37;26.78
63204;BME280;49297;43.210;27.914;2023-03-30T11:35:02;101841.34;;;13.64;25.21
63204;BME280;49297;43.210;27.914;2023-03-30T11:40:16;101841.53;;;13.19;24.64
63204;BME280;49297;43.210;27.914;2023-03-30T11:42:43;101827.31;;;13.62;25.09
63204;BME280;49297;43.210;27.914;2023-03-30T11:45:33;101830.31;;;14.40;24.61
63204;BME280;49297;43.210;27.914;2023-03-30T11:53:29;101829.75;;;15.55;22.20
63204;BME280;49297;43.210;27.914;2023-03-30T11:56:06;101827.63;;;15.78;22.68
63204;BME280;49297;43.210;27.914;2023-03-30T11:58:36;101818.31;;;15.92;22.24
63204;BME280;49297;43.210;27.914;2023-03-30T12:03:45;101816.72;;;16.36;22.52
63204;BME280;49297;43.210;27.914;2023-03-30T12:16:41;101809.75;;;17.25;20.70
63204;BME280;49297;43.210;27.914;2023-03-30T12:19:12;101806.81;;;17.63;20.79
63204;BME280;49297;43.210;27.914;2023-03-30T12:21:54;101809.44;;;18.07;20.81
63204;BME280;49297;43.210;27.914;2023-03-30T12:24:35;101815.13;;;17.78;19.66
63204;BME280;49297;43.210;27.914;2023-03-30T12:27:03;101814.97;;;16.91;20.07
63204;BME280;49297;43.210;27.914;2023-03-30T12:32:21;101807.09;;;17.07;21.26
63204;BME280;49297;43.210;27.914;2023-03-30T12:34:48;101795.88;;;17.48;20.53
63204;BME280;49297;43.210;27.914;2023-03-30T12:42:37;101791.16;;;17.94;20.35
63204;BME280;49297;43.210;27.914;2023-03-30T12:53:01;101792.56;;;17.10;20.75
63204;BME280;49297;43.210;27.914;2023-03-30T13:05:52;101775.97;;;16.52;20.39
63204;BME280;49297;43.210;27.914;2023-03-30T13:08:29;101768.41;;;16.20;20.03
63204;BME280;49297;43.210;27.914;2023-03-30T13:11:40;101772.50;;;16.14;20.31
63204;BME280;49297;43.210;27.914;2023-03-30T13:13:59;101771.88;;;16.30;20.53
63204;BME280;49297;43.210;27.914;2023-03-30T13:19:13;101750.16;;;15.88;20.59
63204;BME280;49297;43.210;27.914;2023-03-30T13:22:03;101754.84;;;15.66;20.50
63204;BME280;49297;43.210;27.914;2023-03-30T13:24:44;101749.00;;;15.53;21.32
63204;BME280;49297;43.210;27.914;2023-03-30T13:29:39;101736.75;;;15.50;21.30
63204;BME280;49297;43.210;27.914;2023-03-30T13:34:43;101729.94;;;15.28;21.23
63204;BME280;49297;43.210;27.914;2023-03-30T13:39:48;101739.81;;;14.79;21.91
63204;BME280;49297;43.210;27.914;2023-03-30T13:42:41;101739.66;;;14.51;22.11
63204;BME280;49297;43.210;27.914;2023-03-30T13:45:12;101735.00;;;14.34;22.39
63204;BME280;49297;43.210;27.914;2023-03-30T13:50:13;101722.56;;;13.63;21.68
63204;BME280;49297;43.210;27.914;2023-03-30T13:52:41;101714.13;;;13.58;22.28
63204;BME280;49297;43.210;27.914;2023-03-30T13:55:14;101722.25;;;13.56;22.13
63204;BME280;49297;43.210;27.914;2023-03-30T13:57:42;101721.63;;;13.43;22.70
63204;BME280;49297;43.210;27.914;2023-03-30T14:03:16;101711.34;;;13.59;22.83
63204;BME280;49297;43.210;27.914;2023-03-30T14:05:42;101710.25;;;13.62;21.96
63204;BME280;49297;43.210;27.914;2023-03-30T14:08:10;101703.63;;;13.56;22.06
63204;BME280;49297;43.210;27.914;2023-03-30T14:10:36;101696.59;;;13.76;22.82
63204;BME280;49297;43.210;27.914;2023-03-30T14:13:02;101701.41;;;13.92;22.66
63204;BME280;49297;43.210;27.914;2023-03-30T14:15:33;101698.88;;;14.00;22.72
63204;BME280;49297;43.210;27.914;2023-03-30T14:18:00;101709.97;;;13.96;22.15
63204;BME280;49297;43.210;27.914;2023-03-30T14:25:56;101696.31;;;13.48;22.47
63204;BME280;49297;43.210;27.914;2023-03-30T14:28:22;101691.38;;;13.44;23.08
63204;BME280;49297;43.210;27.914;2023-03-30T14:30:51;101700.81;;;13.48;23.47
63204;BME280;49297;43.210;27.914;2023-03-30T14:33:25;101702.47;;;13.28;22.67
63204;BME280;49297;43.210;27.914;2023-03-30T14:38:20;101698.09;;;12.96;23.26
63204;BME280;49297;43.210;27.914;2023-03-30T14:40:49;101697.66;;;12.80;23.20
63204;BME280;49297;43.210;27.914;2023-03-30T14:43:18;101692.06;;;12.62;23.88
63204;BME280;49297;43.210;27.914;2023-03-30T14:45:46;101698.06;;;12.43;23.88
63204;BME280;49297;43.210;27.914;2023-03-30T14:48:18;101703.31;;;12.22;27.06
63204;BME280;49297;43.210;27.914;2023-03-30T14:50:44;101706.72;;;12.01;29.38
63204;BME280;49297;43.210;27.914;2023-03-30T14:53:11;101709.25;;;11.69;32.20
63204;BME280;49297;43.210;27.914;2023-03-30T14:55:37;101705.50;;;11.49;32.84
63204;BME280;49297;43.210;27.914;2023-03-30T14:58:05;101705.84;;;11.33;33.55
63204;BME280;49297;43.210;27.914;2023-03-30T15:00:32;101699.06;;;11.17;34.30
63204;BME280;49297;43.210;27.914;2023-03-30T15:03:00;101690.00;;;10.97;35.69
63204;BME280;49297;43.210;27.914;2023-03-30T15:05:30;101696.59;;;10.80;36.48
63204;BME280;49297;43.210;27.914;2023-03-30T15:07:57;101702.41;;;10.61;37.13
63204;BME280;49297;43.210;27.914;2023-03-30T15:10:41;101696.88;;;10.40;37.18
63204;BME280;49297;43.210;27.914;2023-03-30T15:13:14;101696.94;;;10.15;37.38
63204;BME280;49297;43.210;27.914;2023-03-30T15:15:41;101692.34;;;10.05;38.14
63204;BME280;49297;43.210;27.914;2023-03-30T15:18:08;101691.19;;;9.97;38.36
63204;BME280;49297;43.210;27.914;2023-03-30T15:20:38;101695.84;;;9.93;38.85
63204;BME280;49297;43.210;27.914;2023-03-30T15:23:05;101694.25;;;9.90;39.30